createdAt,value
2023-04-04T00:00:43.949Z,65.65
2023-04-04T00:03:18.334Z,65.51
2023-04-04T00:05:47.198Z,65.96
2023-04-04T00:08:15.950Z,65.99
2023-04-04T00:10:44.508Z,66.68
2023-04-04T00:13:13.044Z,65.91
2023-04-04T00:15:41.565Z,66.50
2023-04-04T00:18:10.051Z,67.19
2023-04-04T00:20:38.777Z,67.40
2023-04-04T00:23:10.478Z,66.81
2023-04-04T00:25:38.990Z,66.40
2023-04-04T00:28:07.463Z,66.87
2023-04-04T00:30:36.214Z,67.32
2023-04-04T00:33:05.869Z,67.97
2023-04-04T00:35:34.490Z,68.00
2023-04-04T00:38:02.929Z,68.05
2023-04-04T00:40:31.478Z,68.23
2023-04-04T00:43:01.386Z,68.58
2023-04-04T00:45:30.739Z,68.61
2023-04-04T00:47:59.366Z,68.36
2023-04-04T00:50:27.731Z,69.16
2023-04-04T00:52:56.383Z,69.08
2023-04-04T00:55:25.547Z,69.00
2023-04-04T00:57:54.067Z,68.89
2023-04-04T01:00:23.259Z,69.34
2023-04-04T01:02:52.201Z,69.87
2023-04-04T01:05:20.883Z,70.28
2023-04-04T01:07:49.323Z,70.43
2023-04-04T01:10:17.930Z,70.01
2023-04-04T01:12:46.944Z,71.11
2023-04-04T01:15:15.668Z,71.26
2023-04-04T01:17:44.687Z,71.69
2023-04-04T01:20:15.734Z,71.32
2023-04-04T01:22:44.661Z,70.87
2023-04-04T01:25:14.513Z,70.66
2023-04-04T01:27:42.981Z,71.80
2023-04-04T01:30:13.319Z,71.96
2023-04-04T01:32:45.292Z,72.11
2023-04-04T01:35:22.675Z,71.72
2023-04-04T01:38:07.909Z,73.02
2023-04-04T01:40:37.390Z,73.33
2023-04-04T01:43:06.843Z,72.51
2023-04-04T01:45:35.605Z,73.07
2023-04-04T01:48:04.299Z,73.19
2023-04-04T01:50:32.908Z,73.46
2023-04-04T01:53:01.316Z,72.96
2023-04-04T01:55:29.670Z,73.04
2023-04-04T01:57:58.190Z,73.42
2023-04-04T02:00:26.643Z,74.01
2023-04-04T02:02:55.242Z,73.67
2023-04-04T02:05:23.704Z,73.69
2023-04-04T02:07:52.102Z,73.96
2023-04-04T02:10:20.527Z,73.76
2023-04-04T02:12:49.013Z,73.41
2023-04-04T02:15:18.859Z,74.32
2023-04-04T02:17:48.897Z,74.29
2023-04-04T02:20:18.781Z,74.75
2023-04-04T02:22:53.237Z,75.06
2023-04-04T02:25:23.533Z,74.81
2023-04-04T02:27:52.066Z,75.07
2023-04-04T02:30:20.604Z,75.31
2023-04-04T02:32:49.701Z,75.12
2023-04-04T02:35:18.216Z,74.47
2023-04-04T02:37:46.900Z,75.33
2023-04-04T02:40:15.693Z,74.92
2023-04-04T02:42:44.531Z,74.96
2023-04-04T02:45:14.036Z,74.96
2023-04-04T02:47:42.926Z,74.78
2023-04-04T02:50:11.818Z,75.05
2023-04-04T02:52:40.174Z,75.37
2023-04-04T02:55:09.940Z,75.12
2023-04-04T02:57:38.304Z,75.23
2023-04-04T03:00:10.838Z,76.22
2023-04-04T03:02:39.512Z,75.66
2023-04-04T03:05:09.384Z,75.67
2023-04-04T03:07:38.040Z,75.73
2023-04-04T03:10:08.135Z,75.57
2023-04-04T03:12:36.497Z,75.99
2023-04-04T03:15:06.592Z,76.38
2023-04-04T03:17:35.363Z,76.01
2023-04-04T03:20:04.941Z,76.62
2023-04-04T03:22:33.537Z,76.41
2023-04-04T03:25:02.025Z,76.57
2023-04-04T03:27:32.157Z,76.23
2023-04-04T03:30:00.968Z,76.92
2023-04-04T03:32:29.820Z,76.55
2023-04-04T03:34:58.391Z,77.14
2023-04-04T03:37:26.839Z,76.43
2023-04-04T03:39:55.209Z,76.57
2023-04-04T03:42:23.669Z,76.23
2023-04-04T03:44:52.938Z,76.52
2023-04-04T03:47:21.421Z,76.86
2023-04-04T03:49:51.806Z,77.47
2023-04-04T03:52:20.176Z,77.07
2023-04-04T03:54:48.535Z,77.00
2023-04-04T03:57:17.545Z,77.23
2023-04-04T03:59:46.029Z,77.13
2023-04-04T04:02:14.464Z,77.30
2023-04-04T04:04:43.141Z,77.20
2023-04-04T04:07:11.878Z,77.90
2023-04-04T04:09:40.351Z,77.68
2023-04-04T04:12:09.113Z,77.57
2023-04-04T04:14:37.649Z,77.86
2023-04-04T04:17:06.284Z,78.06
2023-04-04T04:19:34.641Z,77.88
2023-04-04T04:22:03.166Z,77.69
2023-04-04T04:24:31.651Z,77.78
2023-04-04T04:27:00.000Z,77.92
2023-04-04T04:29:30.160Z,78.04
2023-04-04T04:32:01.218Z,78.32
2023-04-04T04:34:29.836Z,78.19
2023-04-04T04:36:59.231Z,78.12
2023-04-04T04:39:27.638Z,78.33
2023-04-04T04:41:56.044Z,78.08
2023-04-04T04:44:24.791Z,78.32
2023-04-04T04:46:53.201Z,78.84
2023-04-04T04:49:21.922Z,78.69
2023-04-04T04:51:50.681Z,78.31
2023-04-04T04:54:19.020Z,78.47
2023-04-04T04:56:47.464Z,78.51
2023-04-04T04:59:15.876Z,78.09
2023-04-04T05:01:44.241Z,78.26
2023-04-04T05:04:13.289Z,78.49
2023-04-04T05:06:41.916Z,78.18
2023-04-04T05:09:10.371Z,77.58
2023-04-04T05:11:39.071Z,77.76
2023-04-04T05:14:10.095Z,77.83
2023-04-04T05:16:38.477Z,77.83
2023-04-04T05:19:07.113Z,77.72
2023-04-04T05:21:35.885Z,77.60
2023-04-04T05:24:05.627Z,77.43
2023-04-04T05:26:34.259Z,77.50
2023-04-04T05:29:02.555Z,77.01
2023-04-04T05:31:30.997Z,76.81
2023-04-04T05:34:07.336Z,76.87
2023-04-04T05:36:35.979Z,76.61
2023-04-04T05:39:05.096Z,76.68
2023-04-04T05:41:34.452Z,76.21
2023-04-04T05:44:02.911Z,76.07
2023-04-04T05:46:31.599Z,76.13
2023-04-04T05:49:00.100Z,75.94
2023-04-04T05:51:28.472Z,75.71
2023-04-04T05:53:56.932Z,75.85
2023-04-04T05:56:25.339Z,75.81
2023-04-04T05:58:53.836Z,75.61
2023-04-04T06:01:22.423Z,75.38
2023-04-04T06:03:50.795Z,75.30
2023-04-04T06:06:19.188Z,75.56
2023-04-04T06:08:53.511Z,75.43
2023-04-04T06:11:22.951Z,75.10
2023-04-04T06:13:52.342Z,74.94
2023-04-04T06:16:20.832Z,75.05
2023-04-04T06:18:49.460Z,74.91
2023-04-04T06:21:18.243Z,74.84
2023-04-04T06:23:46.671Z,75.01
2023-04-04T06:26:16.399Z,75.61
2023-04-04T06:28:51.226Z,75.40
2023-04-04T06:31:19.579Z,74.84
2023-04-04T06:33:47.943Z,74.32
2023-04-04T06:36:16.591Z,74.23
2023-04-04T06:38:45.068Z,74.19
2023-04-04T06:41:13.308Z,74.14
2023-04-04T06:43:41.859Z,73.89
2023-04-04T06:46:10.775Z,74.05
2023-04-04T06:48:39.065Z,74.06
2023-04-04T06:51:08.390Z,73.89
2023-04-04T06:53:36.829Z,73.50
2023-04-04T06:56:05.993Z,73.47
2023-04-04T06:58:34.396Z,72.98
2023-04-04T07:01:03.142Z,72.78
2023-04-04T07:03:31.838Z,72.64
2023-04-04T07:06:03.096Z,72.43
2023-04-04T07:08:36.311Z,72.45
2023-04-04T07:11:07.363Z,72.08
2023-04-04T07:13:36.163Z,70.93
2023-04-04T07:16:04.945Z,70.41
2023-04-04T07:18:33.452Z,71.28
2023-04-04T07:21:01.796Z,71.18
2023-04-04T07:23:30.026Z,70.75
2023-04-04T07:25:58.509Z,70.11
2023-04-04T07:28:27.243Z,69.58
2023-04-04T07:30:56.590Z,69.49
2023-04-04T07:33:25.049Z,68.44
2023-04-04T07:35:53.561Z,68.20
2023-04-04T07:38:22.238Z,68.25
2023-04-04T07:40:50.768Z,68.39
2023-04-04T07:43:19.179Z,66.80
2023-04-04T07:45:47.522Z,65.54
2023-04-04T07:48:16.206Z,66.52
2023-04-04T07:50:44.571Z,65.81
2023-04-04T07:53:12.897Z,65.74
2023-04-04T07:55:41.168Z,64.16
2023-04-04T07:58:09.470Z,61.34
2023-04-04T08:00:38.286Z,62.26
2023-04-04T08:03:07.048Z,62.38
2023-04-04T08:05:35.584Z,62.84
2023-04-04T08:08:03.958Z,60.20
2023-04-04T08:10:32.284Z,58.98
2023-04-04T08:13:00.642Z,59.89
2023-04-04T08:15:30.183Z,60.57
2023-04-04T08:17:58.686Z,57.17
2023-04-04T08:20:27.616Z,55.11
2023-04-04T08:22:56.895Z,57.04
2023-04-04T08:25:25.387Z,55.47
2023-04-04T08:27:53.911Z,58.18
2023-04-04T08:30:22.163Z,57.37
2023-04-04T08:32:50.450Z,57.32
2023-04-04T08:35:18.997Z,52.55
2023-04-04T08:37:47.851Z,53.69
2023-04-04T08:40:16.654Z,50.30
2023-04-04T08:42:45.591Z,48.15
2023-04-04T08:45:17.915Z,49.60
2023-04-04T08:47:50.998Z,52.17
2023-04-04T08:50:20.924Z,51.08
2023-04-04T08:52:49.885Z,51.40
2023-04-04T08:55:19.707Z,51.71
2023-04-04T08:57:49.067Z,52.86
2023-04-04T09:00:20.907Z,53.96
2023-04-04T09:02:56.980Z,52.98
2023-04-04T09:05:25.826Z,53.59
2023-04-04T09:07:54.942Z,53.96
2023-04-04T09:10:23.225Z,53.55
2023-04-04T09:12:53.761Z,54.32
2023-04-04T09:15:24.463Z,52.67
2023-04-04T09:17:52.877Z,51.75
2023-04-04T09:20:40.917Z,52.77
2023-04-04T09:23:11.519Z,50.69
2023-04-04T09:25:56.345Z,50.31
2023-04-04T09:28:29.168Z,52.14
2023-04-04T09:30:57.827Z,52.01
2023-04-04T09:33:26.282Z,52.40
2023-04-04T09:35:58.178Z,50.34
2023-04-04T09:38:28.550Z,48.50
2023-04-04T09:40:57.792Z,48.71
2023-04-04T09:43:30.078Z,49.56
2023-04-04T09:46:00.091Z,50.60
2023-04-04T09:48:30.460Z,51.38
2023-04-04T09:50:59.385Z,51.50
2023-04-04T09:53:28.286Z,49.87
2023-04-04T09:55:57.209Z,49.68
2023-04-04T09:58:27.438Z,50.82
2023-04-04T10:00:57.188Z,50.95
2023-04-04T10:03:26.982Z,50.46
2023-04-04T10:06:00.562Z,49.14
2023-04-04T10:08:29.982Z,47.70
2023-04-04T10:11:10.473Z,49.15
2023-04-04T10:13:46.095Z,49.36
2023-04-04T10:16:19.273Z,49.81
2023-04-04T10:18:48.577Z,50.13
2023-04-04T10:21:18.020Z,49.96
2023-04-04T10:23:47.003Z,50.74
2023-04-04T10:26:16.211Z,49.90
2023-04-04T10:28:45.261Z,49.82
2023-04-04T10:31:21.058Z,49.22
2023-04-04T10:33:55.457Z,50.16
2023-04-04T10:36:27.799Z,51.18
2023-04-04T10:39:02.238Z,51.49
2023-04-04T10:41:32.537Z,52.01
2023-04-04T10:44:08.929Z,51.57
2023-04-04T10:46:39.190Z,51.22
2023-04-04T10:49:08.303Z,51.29
2023-04-04T10:51:45.085Z,51.02
2023-04-04T10:54:22.102Z,50.70
2023-04-04T10:56:50.469Z,50.61
2023-04-04T10:59:18.960Z,49.07
2023-04-04T11:01:57.447Z,50.30
2023-04-04T11:04:34.198Z,48.78
2023-04-04T11:07:12.486Z,48.40
2023-04-04T11:09:55.272Z,48.23
2023-04-04T11:12:29.519Z,47.84
2023-04-04T11:15:12.421Z,47.54
2023-04-04T11:18:07.821Z,47.86
2023-04-04T11:20:45.123Z,49.04
2023-04-04T11:23:20.449Z,48.32
2023-04-04T11:25:53.409Z,48.06
2023-04-04T11:28:45.910Z,48.01
2023-04-04T11:31:25.289Z,48.35
2023-04-04T11:33:56.499Z,48.85
2023-04-04T11:36:50.069Z,49.29
2023-04-04T11:39:25.776Z,49.31
2023-04-04T11:41:56.557Z,49.29
2023-04-04T11:44:28.726Z,49.65
2023-04-04T11:47:03.526Z,50.47
2023-04-04T11:49:36.883Z,51.33
2023-04-04T11:52:06.809Z,52.10
2023-04-04T11:54:35.471Z,52.35
2023-04-04T11:57:05.009Z,52.54
2023-04-04T11:59:34.243Z,51.18
2023-04-04T12:02:03.312Z,50.68
2023-04-04T12:04:32.499Z,50.89
2023-04-04T12:07:01.440Z,51.28
2023-04-04T12:09:30.479Z,51.55
2023-04-04T12:11:59.023Z,51.33
2023-04-04T12:14:27.599Z,50.47
2023-04-04T12:16:56.961Z,50.66
2023-04-04T12:19:26.216Z,51.82
2023-04-04T12:21:56.805Z,52.69
2023-04-04T12:24:26.073Z,53.30
2023-04-04T12:26:54.620Z,54.27
2023-04-04T12:29:23.642Z,54.54
2023-04-04T12:31:53.637Z,55.35
2023-04-04T12:34:23.805Z,55.64
2023-04-04T12:36:53.520Z,55.89
2023-04-04T12:39:23.159Z,56.32
2023-04-04T12:41:57.315Z,56.21
2023-04-04T12:44:34.913Z,56.73
2023-04-04T12:47:05.351Z,56.59
2023-04-04T12:49:39.578Z,56.45
2023-04-04T12:52:08.490Z,56.51
2023-04-04T12:54:41.626Z,56.57
2023-04-04T12:57:12.239Z,56.47
2023-04-04T12:59:46.150Z,56.80
2023-04-04T13:02:16.960Z,56.95
2023-04-04T13:04:47.324Z,56.68
2023-04-04T13:07:27.390Z,56.93
2023-04-04T13:09:57.554Z,56.57
2023-04-04T13:12:26.141Z,55.89
2023-04-04T13:14:59.545Z,55.58
2023-04-04T13:17:41.318Z,55.62
2023-04-04T13:20:10.841Z,55.40
2023-04-04T13:22:40.390Z,55.26
2023-04-04T13:25:10.825Z,55.28
2023-04-04T13:27:40.934Z,55.54
2023-04-04T13:30:11.668Z,55.70
2023-04-04T13:32:40.282Z,55.66
2023-04-04T13:35:10.219Z,56.22
2023-04-04T13:37:38.698Z,56.14
2023-04-04T13:40:09.944Z,55.77
2023-04-04T13:42:38.333Z,54.91
2023-04-04T13:45:09.260Z,54.09
2023-04-04T13:47:37.784Z,53.67
2023-04-04T13:50:08.435Z,54.03
2023-04-04T13:52:37.050Z,54.43
2023-04-04T13:55:07.593Z,54.54
2023-04-04T13:57:35.851Z,54.42
2023-04-04T14:00:08.405Z,54.47
2023-04-04T14:02:36.892Z,53.78
2023-04-04T14:05:07.499Z,53.39
2023-04-04T14:07:37.749Z,53.40
2023-04-04T14:10:10.613Z,52.94
2023-04-04T14:12:39.078Z,53.23
2023-04-04T14:15:09.681Z,52.80
2023-04-04T14:17:37.952Z,52.90
2023-04-04T14:20:08.474Z,52.61
2023-04-04T14:22:36.840Z,52.80
2023-04-04T14:25:06.725Z,52.89
2023-04-04T14:27:35.597Z,52.37
2023-04-04T14:30:05.482Z,52.52
2023-04-04T14:32:34.031Z,51.65
2023-04-04T14:35:03.823Z,51.73
2023-04-04T14:37:32.251Z,52.03
2023-04-04T14:40:00.608Z,52.53
2023-04-04T14:42:29.182Z,52.79
2023-04-04T14:44:57.986Z,52.82
2023-04-04T14:47:26.308Z,52.67
2023-04-04T14:49:55.980Z,52.33
2023-04-04T14:52:24.785Z,52.52
2023-04-04T14:54:53.092Z,52.45
2023-04-04T14:57:22.127Z,52.35
2023-04-04T14:59:50.769Z,50.93
2023-04-04T15:02:19.144Z,51.24
2023-04-04T15:04:47.573Z,51.63
2023-04-04T15:07:15.979Z,51.41
2023-04-04T15:09:44.268Z,51.52
2023-04-04T15:12:12.645Z,51.25
2023-04-04T15:14:41.331Z,51.13
2023-04-04T15:17:09.723Z,51.30
2023-04-04T15:19:38.202Z,51.40
2023-04-04T15:22:06.549Z,51.21
2023-04-04T15:24:34.975Z,51.58
2023-04-04T15:27:03.591Z,51.82
2023-04-04T15:29:31.974Z,52.58
2023-04-04T15:32:00.256Z,51.66
2023-04-04T15:34:28.955Z,51.41
2023-04-04T15:36:59.120Z,51.71
2023-04-04T15:39:27.446Z,51.75
2023-04-04T15:41:56.285Z,51.69
2023-04-04T15:44:24.784Z,51.39
2023-04-04T15:46:53.609Z,51.47
2023-04-04T15:49:22.036Z,51.59
2023-04-04T15:51:50.589Z,51.65
2023-04-04T15:54:19.002Z,51.56
2023-04-04T15:56:47.540Z,51.85
2023-04-04T15:59:16.035Z,52.02
2023-04-04T16:01:46.221Z,51.64
2023-04-04T16:04:14.933Z,51.27
2023-04-04T16:06:43.444Z,51.66
2023-04-04T16:09:11.828Z,51.55
2023-04-04T16:11:40.595Z,51.70
2023-04-04T16:14:10.309Z,51.52
2023-04-04T16:16:40.049Z,51.46
2023-04-04T16:19:08.561Z,51.82
2023-04-04T16:21:37.316Z,52.10
2023-04-04T16:24:06.211Z,52.48
2023-04-04T16:26:35.099Z,52.82
2023-04-04T16:29:03.552Z,52.70
2023-04-04T16:31:32.257Z,52.22
2023-04-04T16:34:00.927Z,52.18
2023-04-04T16:36:29.291Z,52.62
2023-04-04T16:38:58.813Z,53.54
2023-04-04T16:41:27.540Z,53.46
2023-04-04T16:43:58.963Z,53.35
2023-04-04T16:46:27.835Z,53.28
2023-04-04T16:48:56.230Z,53.38
2023-04-04T16:51:25.453Z,53.40
2023-04-04T16:53:54.137Z,53.52
2023-04-04T16:56:23.373Z,53.60
2023-04-04T16:58:51.793Z,53.37
2023-04-04T17:01:21.909Z,53.74
2023-04-04T17:03:50.347Z,53.66
2023-04-04T17:06:18.694Z,53.63
2023-04-04T17:08:48.502Z,53.85
2023-04-04T17:11:17.008Z,54.01
2023-04-04T17:13:45.887Z,54.62
2023-04-04T17:16:14.571Z,54.06
2023-04-04T17:18:43.820Z,53.61
2023-04-04T17:21:12.260Z,53.10
2023-04-04T17:23:40.818Z,53.02
2023-04-04T17:26:09.385Z,53.10
2023-04-04T17:28:38.193Z,52.93
2023-04-04T17:31:07.097Z,53.41
2023-04-04T17:33:35.433Z,53.41
2023-04-04T17:36:04.017Z,53.44
2023-04-04T17:38:32.468Z,53.52
2023-04-04T17:41:03.337Z,53.54
2023-04-04T17:43:31.846Z,53.32
2023-04-04T17:46:02.071Z,53.80
2023-04-04T17:48:32.022Z,54.09
2023-04-04T17:51:00.952Z,53.69
2023-04-04T17:53:29.253Z,53.59
2023-04-04T17:55:58.452Z,53.50
2023-04-04T17:58:27.309Z,52.93
2023-04-04T18:00:57.081Z,53.30
2023-04-04T18:03:26.004Z,53.27
2023-04-04T18:05:54.703Z,53.21
2023-04-04T18:08:23.037Z,53.37
2023-04-04T18:10:51.666Z,53.48
2023-04-04T18:13:20.679Z,53.55
2023-04-04T18:15:50.236Z,53.44
2023-04-04T18:18:20.867Z,53.65
2023-04-04T18:20:49.302Z,53.86
2023-04-04T18:23:17.602Z,53.83
2023-04-04T18:25:46.101Z,53.75
2023-04-04T18:28:14.431Z,53.71
2023-04-04T18:30:43.737Z,54.06
2023-04-04T18:33:12.893Z,53.99
2023-04-04T18:35:41.410Z,54.16
2023-04-04T18:38:10.456Z,54.32
2023-04-04T18:40:39.372Z,54.51
2023-04-04T18:43:08.149Z,54.50
2023-04-04T18:45:40.246Z,54.85
2023-04-04T18:48:11.361Z,55.81
2023-04-04T18:50:40.396Z,56.19
2023-04-04T18:53:09.219Z,56.74
2023-04-04T18:55:37.919Z,57.56
2023-04-04T18:58:06.330Z,59.06
2023-04-04T19:00:34.789Z,58.66
2023-04-04T19:03:03.231Z,59.02
2023-04-04T19:05:32.812Z,59.20
2023-04-04T19:08:02.090Z,59.17
2023-04-04T19:10:30.730Z,59.01
2023-04-04T19:12:59.168Z,59.11
2023-04-04T19:15:27.624Z,59.71
2023-04-04T19:17:56.025Z,59.32
2023-04-04T19:20:24.738Z,59.47
2023-04-04T19:22:53.098Z,59.38
2023-04-04T19:25:21.643Z,59.46
2023-04-04T19:27:50.532Z,59.47
2023-04-04T19:30:41.299Z,60.00
2023-04-04T19:33:11.341Z,59.78
2023-04-04T19:35:53.881Z,59.76
2023-04-04T19:38:24.809Z,60.14
2023-04-04T19:40:55.877Z,60.60
2023-04-04T19:43:25.946Z,60.62
2023-04-04T19:45:56.074Z,60.51
2023-04-04T19:48:51.612Z,60.90
2023-04-04T19:51:42.049Z,61.30
2023-04-04T19:54:17.962Z,61.92
2023-04-04T19:56:47.054Z,62.83
2023-04-04T20:00:05.434Z,62.07
2023-04-04T20:02:56.141Z,62.35
2023-04-04T20:06:05.366Z,62.24
2023-04-04T20:08:38.785Z,62.70
2023-04-04T20:11:07.662Z,62.96
2023-04-04T20:13:37.438Z,63.86
2023-04-04T20:16:10.964Z,63.14
2023-04-04T20:18:41.048Z,63.02
2023-04-04T20:21:12.364Z,62.98
2023-04-04T20:23:49.229Z,63.12
2023-04-04T20:26:43.207Z,63.80
2023-04-04T20:29:12.840Z,63.67
2023-04-04T20:31:43.065Z,63.37
2023-04-04T20:34:30.042Z,64.42
2023-04-04T20:36:58.797Z,64.64
2023-04-04T20:39:45.319Z,64.40
2023-04-04T20:42:33.329Z,64.83
2023-04-04T20:45:12.195Z,64.41
2023-04-04T20:47:45.058Z,64.37
2023-04-04T20:50:45.725Z,64.30
2023-04-04T20:53:18.975Z,64.31
2023-04-04T20:55:47.822Z,64.45
2023-04-04T20:58:28.256Z,64.63
2023-04-04T21:00:58.289Z,64.42
2023-04-04T21:03:37.273Z,64.94
2023-04-04T21:06:15.033Z,66.27
2023-04-04T21:08:45.355Z,66.21
2023-04-04T21:11:14.342Z,65.78
2023-04-04T21:13:45.101Z,66.06
2023-04-04T21:16:16.063Z,66.46
2023-04-04T21:18:45.047Z,66.41
2023-04-04T21:21:18.439Z,66.40
2023-04-04T21:23:57.201Z,66.55
2023-04-04T21:26:32.161Z,66.68
2023-04-04T21:29:02.523Z,66.78
2023-04-04T21:31:35.766Z,66.48
2023-04-04T21:34:10.077Z,66.30
2023-04-04T21:36:38.963Z,66.33
2023-04-04T21:39:10.466Z,66.30
2023-04-04T21:41:39.132Z,66.15
2023-04-04T21:44:08.760Z,66.23
2023-04-04T21:46:38.716Z,66.23
2023-04-04T21:49:08.076Z,66.25
2023-04-04T21:51:36.874Z,66.12
2023-04-04T21:54:05.476Z,66.24
2023-04-04T21:56:33.942Z,66.31
2023-04-04T21:59:05.441Z,66.18
2023-04-04T22:01:34.277Z,66.16
2023-04-04T22:04:02.799Z,66.20
2023-04-04T22:06:31.497Z,66.23
2023-04-04T22:09:01.227Z,66.13
2023-04-04T22:11:29.657Z,66.32
2023-04-04T22:14:03.834Z,66.40
2023-04-04T22:16:36.155Z,66.78
2023-04-04T22:19:04.534Z,66.97
2023-04-04T22:21:35.627Z,67.02
2023-04-04T22:24:05.032Z,67.13
2023-04-04T22:26:33.677Z,67.07
2023-04-04T22:29:03.556Z,67.26
2023-04-04T22:31:33.427Z,67.34
2023-04-04T22:34:02.594Z,67.16
2023-04-04T22:36:30.998Z,67.27
2023-04-04T22:38:59.414Z,67.43
2023-04-04T22:41:29.110Z,67.24
2023-04-04T22:43:58.352Z,67.21
2023-04-04T22:46:28.075Z,67.53
2023-04-04T22:49:03.889Z,67.83
2023-04-04T22:51:34.336Z,68.22
2023-04-04T22:54:03.241Z,68.27
2023-04-04T22:56:32.346Z,68.36
2023-04-04T22:59:00.689Z,68.52
2023-04-04T23:01:29.085Z,68.47
2023-04-04T23:03:57.759Z,68.56
2023-04-04T23:06:26.119Z,68.90
2023-04-04T23:08:54.840Z,69.25
2023-04-04T23:11:23.309Z,69.05
2023-04-04T23:13:53.293Z,68.80
2023-04-04T23:16:22.875Z,69.19
2023-04-04T23:18:51.601Z,69.10
2023-04-04T23:21:21.221Z,69.07
2023-04-04T23:23:50.339Z,69.20
2023-04-04T23:26:18.762Z,69.14
2023-04-04T23:28:47.416Z,69.32
2023-04-04T23:31:16.368Z,69.30
2023-04-04T23:33:44.768Z,69.40
2023-04-04T23:36:14.706Z,69.44
2023-04-04T23:38:43.370Z,69.27
2023-04-04T23:41:11.695Z,69.39
2023-04-04T23:43:42.176Z,69.42
2023-04-04T23:46:13.863Z,69.24
2023-04-04T23:48:42.423Z,69.26
2023-04-04T23:51:11.100Z,69.30
2023-04-04T23:53:39.884Z,69.43
2023-04-04T23:56:08.946Z,69.60
2023-04-04T23:58:38.144Z,69.64
